createdAt,value
2019-04-10T00:04:53.629Z,100832.80
2019-04-10T00:09:47.607Z,100834.85
2019-04-10T00:14:41.566Z,100843.27
2019-04-10T00:19:35.903Z,100835.05
2019-04-10T00:24:30.237Z,100839.27
2019-04-10T00:29:24.572Z,100835.62
2019-04-10T00:34:18.597Z,100841.27
2019-04-10T00:39:12.687Z,100840.52
2019-04-10T00:44:07.768Z,100833.73
2019-04-10T00:49:01.995Z,100843.00
2019-04-10T00:53:55.956Z,100843.72
2019-04-10T00:58:51.185Z,100844.16
2019-04-10T01:03:48.093Z,100837.77
2019-04-10T01:08:41.304Z,100839.33
2019-04-10T01:13:35.265Z,100841.72
2019-04-10T01:18:29.233Z,100837.14
2019-04-10T01:23:23.188Z,100835.41
2019-04-10T01:28:17.153Z,100842.77
2019-04-10T01:33:12.345Z,100837.67
2019-04-10T01:38:06.608Z,100841.24
2019-04-10T01:43:08.309Z,100842.64
2019-04-10T01:47:56.604Z,100842.74
2019-04-10T01:52:50.591Z,100846.45
2019-04-10T01:57:44.707Z,100843.45
2019-04-10T02:02:41.177Z,100835.25
2019-04-10T02:07:35.216Z,100837.19
2019-04-10T02:12:29.179Z,100840.59
2019-04-10T02:17:24.349Z,100844.41
2019-04-10T02:22:18.457Z,100840.93
2019-04-10T02:27:12.446Z,100840.44
2019-04-10T02:32:07.961Z,100850.01
2019-04-10T02:37:02.546Z,100845.01
2019-04-10T02:41:58.388Z,100849.49
2019-04-10T02:46:54.898Z,100846.97
2019-04-10T02:51:49.922Z,100851.66
2019-04-10T02:56:45.885Z,100850.85
2019-04-10T03:01:41.368Z,100852.41
2019-04-10T03:06:35.671Z,100856.45
2019-04-10T03:11:31.369Z,100850.23
2019-04-10T03:16:25.697Z,100856.61
2019-04-10T03:21:20.714Z,100860.78
2019-04-10T03:26:15.353Z,100867.11
2019-04-10T03:31:10.628Z,100865.53
2019-04-10T03:36:05.417Z,100859.89
2019-04-10T03:40:59.816Z,100863.02
2019-04-10T03:45:55.039Z,100874.52
2019-04-10T03:50:50.155Z,100876.59
2019-04-10T03:55:45.255Z,100873.59
2019-04-10T04:00:40.425Z,100874.53
2019-04-10T04:05:34.987Z,100878.38
2019-04-10T04:10:29.222Z,100889.22
2019-04-10T04:15:24.015Z,100888.18
2019-04-10T04:20:19.073Z,100899.58
2019-04-10T04:25:13.133Z,100895.02
2019-04-10T04:30:08.423Z,100893.58
2019-04-10T04:35:04.634Z,100900.09
2019-04-10T04:39:58.674Z,100908.27
2019-04-10T04:44:52.757Z,100905.53
2019-04-10T04:49:46.843Z,100905.36
2019-04-10T04:54:41.512Z,100917.59
2019-04-10T04:59:36.533Z,100922.36
2019-04-10T05:04:32.297Z,100923.76
2019-04-10T05:09:33.319Z,100930.00
2019-04-10T05:14:23.792Z,100933.48
2019-04-10T05:19:18.951Z,100943.29
2019-04-10T05:24:13.717Z,100950.17
2019-04-10T05:29:07.710Z,100952.19
2019-04-10T05:34:01.742Z,100955.00
2019-04-10T05:38:55.947Z,100954.73
2019-04-10T05:43:50.936Z,100963.50
2019-04-10T05:48:46.125Z,100976.59
2019-04-10T05:53:40.840Z,100975.55
2019-04-10T05:58:34.904Z,100974.04
2019-04-10T06:03:28.875Z,100981.45
2019-04-10T06:08:23.743Z,100990.05
2019-04-10T06:13:17.823Z,100998.05
2019-04-10T06:18:12.816Z,101000.58
2019-04-10T06:23:08.070Z,101002.16
2019-04-10T06:28:03.144Z,101005.02
2019-04-10T06:32:57.901Z,101005.28
2019-04-10T06:37:52.537Z,101006.66
2019-04-10T06:42:50.803Z,101002.61
2019-04-10T06:47:42.548Z,101000.27
2019-04-10T06:52:36.702Z,100993.20
2019-04-10T06:57:30.780Z,101008.52
2019-04-10T07:02:28.279Z,101012.06
2019-04-10T07:07:23.867Z,101014.97
2019-04-10T07:12:16.570Z,101017.31
2019-04-10T07:17:13.797Z,101023.14
2019-04-10T07:22:11.605Z,101030.37
2019-04-10T07:27:04.833Z,101020.03
2019-04-10T07:31:59.180Z,101030.39
2019-04-10T07:36:53.971Z,101037.50
2019-04-10T07:41:48.016Z,101041.77
2019-04-10T07:46:42.350Z,101041.25
2019-04-10T07:51:36.724Z,101034.73
2019-04-10T07:56:31.204Z,101047.83
2019-04-10T08:01:26.360Z,101038.06
2019-04-10T08:06:20.552Z,101041.52
2019-04-10T08:11:15.467Z,101039.26
2019-04-10T08:16:10.577Z,101043.98
2019-04-10T08:21:05.028Z,101046.05
2019-04-10T08:26:00.077Z,101042.68
2019-04-10T08:30:54.696Z,101037.81
2019-04-10T08:35:49.515Z,101041.16
2019-04-10T08:40:43.926Z,101038.55
2019-04-10T08:45:46.469Z,101049.53
2019-04-10T08:50:34.438Z,101044.78
2019-04-10T08:55:28.537Z,101053.41
2019-04-10T09:00:22.733Z,101050.82
2019-04-10T09:05:17.520Z,101056.59
2019-04-10T09:10:12.334Z,101061.23
2019-04-10T09:15:07.674Z,101066.25
2019-04-10T09:20:04.534Z,101070.04
2019-04-10T09:24:58.681Z,101063.54
2019-04-10T09:29:54.166Z,101052.27
2019-04-10T09:34:48.338Z,101050.25
2019-04-10T09:39:43.411Z,101048.23
2019-04-10T09:44:37.946Z,101050.91
2019-04-10T09:49:38.983Z,101051.73
2019-04-10T09:54:28.175Z,101051.52
2019-04-10T09:59:33.981Z,101050.04
2019-04-10T10:04:19.420Z,101046.42
2019-04-10T10:09:14.780Z,101036.27
2019-04-10T10:14:08.795Z,101037.64
2019-04-10T10:19:02.889Z,101049.27
2019-04-10T10:23:56.956Z,101044.94
2019-04-10T10:28:50.947Z,101038.44
2019-04-10T10:33:45.895Z,101041.34
2019-04-10T10:38:40.110Z,101038.25
2019-04-10T10:43:34.387Z,101040.03
2019-04-10T10:48:29.479Z,101040.17
2019-04-10T10:53:24.056Z,101038.17
2019-04-10T10:58:18.173Z,101034.38
2019-04-10T11:03:12.245Z,101034.75
2019-04-10T11:08:06.900Z,101024.61
2019-04-10T11:13:02.244Z,101025.75
2019-04-10T11:17:56.627Z,101028.09
2019-04-10T11:22:50.804Z,101014.73
2019-04-10T11:27:44.878Z,101016.69
2019-04-10T11:32:38.882Z,101030.98
2019-04-10T11:37:41.157Z,101025.60
2019-04-10T11:42:29.066Z,101023.98
2019-04-10T11:47:26.366Z,101018.34
2019-04-10T11:52:31.180Z,101022.08
2019-04-10T11:57:19.811Z,101030.20
2019-04-10T12:02:14.540Z,101021.06
2019-04-10T12:07:11.184Z,101024.97
2019-04-10T12:12:05.662Z,101018.10
2019-04-10T12:16:59.856Z,101025.46
2019-04-10T12:21:53.897Z,101032.91
2019-04-10T12:26:47.886Z,101028.57
2019-04-10T12:31:41.993Z,101018.62
2019-04-10T12:36:36.424Z,101028.22
2019-04-10T12:41:31.129Z,101039.93
2019-04-10T12:46:25.172Z,101025.12
2019-04-10T12:51:19.362Z,101025.68
2019-04-10T12:56:13.770Z,101025.11
2019-04-10T13:01:08.709Z,101030.90
2019-04-10T13:06:03.369Z,101031.75
2019-04-10T13:10:58.313Z,101028.51
2019-04-10T13:15:53.966Z,101034.63
2019-04-10T13:20:48.398Z,101041.63
2019-04-10T13:25:42.844Z,101034.31
2019-04-10T13:30:46.517Z,101031.62
2019-04-10T13:35:35.138Z,101024.58
2019-04-10T13:40:29.890Z,101027.11
2019-04-10T13:45:24.001Z,101024.22
2019-04-10T13:50:18.954Z,101026.36
2019-04-10T13:55:13.337Z,101025.41
2019-04-10T14:00:09.948Z,101036.89
2019-04-10T14:05:07.395Z,101030.23
2019-04-10T14:10:05.072Z,101029.89
2019-04-10T14:14:59.294Z,101029.77
2019-04-10T14:19:54.126Z,101036.70
2019-04-10T14:24:49.772Z,101034.77
2019-04-10T14:29:44.861Z,101040.23
2019-04-10T14:34:39.179Z,101043.94
2019-04-10T14:39:33.595Z,101039.94
2019-04-10T14:44:28.577Z,101041.81
2019-04-10T14:49:22.968Z,101050.36
2019-04-10T14:54:17.590Z,101048.28
2019-04-10T14:59:11.778Z,101066.64
2019-04-10T15:04:05.760Z,101059.66
2019-04-10T15:08:59.976Z,101058.48
2019-04-10T15:13:55.044Z,101058.56
2019-04-10T15:18:49.146Z,101061.75
2019-04-10T15:23:43.286Z,101060.02
2019-04-10T15:28:37.298Z,101064.69
2019-04-10T15:33:31.767Z,101073.52
2019-04-10T15:38:26.209Z,101066.14
2019-04-10T15:43:23.429Z,101073.03
2019-04-10T15:48:17.329Z,101072.72
2019-04-10T15:53:11.755Z,101078.30
2019-04-10T15:58:06.679Z,101079.65
2019-04-10T16:03:00.829Z,101081.19
2019-04-10T16:07:55.318Z,101092.77
2019-04-10T16:12:50.085Z,101090.44
2019-04-10T16:17:46.073Z,101096.70
2019-04-10T16:22:42.658Z,101100.88
2019-04-10T16:27:36.991Z,101094.08
2019-04-10T16:32:31.091Z,101095.70
2019-04-10T16:37:26.263Z,101105.67
2019-04-10T16:45:44.370Z,101114.72
2019-04-10T16:50:38.524Z,101117.64
2019-04-10T16:55:32.617Z,101123.55
2019-04-10T17:00:27.007Z,101131.86
2019-04-10T17:05:21.228Z,101140.25
2019-04-10T17:10:22.583Z,101146.97
2019-04-10T17:15:13.354Z,101147.20
2019-04-10T17:20:08.552Z,101153.85
2019-04-10T17:25:04.727Z,101165.95
2019-04-10T17:29:58.893Z,101163.53
2019-04-10T17:34:52.905Z,101172.55
2019-04-10T17:39:47.727Z,101178.99
2019-04-10T17:44:42.219Z,101189.14
2019-04-10T17:49:36.474Z,101197.36
2019-04-10T17:54:31.425Z,101204.36
2019-04-10T17:59:26.710Z,101211.58
2019-04-10T18:04:22.063Z,101225.07
2019-04-10T18:09:16.293Z,101231.47
2019-04-10T18:14:11.172Z,101245.28
2019-04-10T18:19:06.418Z,101258.65
2019-04-10T18:24:01.954Z,101258.02
2019-04-10T18:28:56.566Z,101263.91
2019-04-10T18:33:51.082Z,101268.38
2019-04-10T18:38:48.065Z,101277.47
2019-04-10T18:43:42.499Z,101287.19
2019-04-10T18:48:36.778Z,101294.73
2019-04-10T18:53:31.003Z,101308.05
2019-04-10T18:58:27.573Z,101309.67
2019-04-10T19:03:23.620Z,101313.33
2019-04-10T19:08:18.076Z,101320.50
2019-04-10T19:16:48.032Z,101331.34
2019-04-10T19:21:42.299Z,101337.86
2019-04-10T19:26:37.670Z,101350.23
2019-04-10T19:31:34.757Z,101349.02
2019-04-10T19:36:29.905Z,101356.75
2019-04-10T19:45:54.338Z,101365.37
2019-04-10T19:50:49.812Z,101370.45
2019-04-10T19:55:44.170Z,101374.30
2019-04-10T20:00:38.830Z,101383.50
2019-04-10T20:05:33.707Z,101383.52
2019-04-10T20:10:27.936Z,101391.05
2019-04-10T20:16:45.026Z,101389.25
2019-04-10T20:21:39.751Z,101398.92
2019-04-10T20:26:34.928Z,101408.88
2019-04-10T20:31:31.201Z,101411.88
2019-04-10T20:36:25.357Z,101408.67
2019-04-10T20:41:19.508Z,101418.77
2019-04-10T20:46:13.883Z,101428.88
2019-04-10T20:51:08.281Z,101431.89
2019-04-10T20:56:02.601Z,101439.08
2019-04-10T21:00:56.999Z,101443.61
2019-04-10T21:05:51.075Z,101455.17
2019-04-10T21:10:45.195Z,101458.22
2019-04-10T21:15:39.151Z,101466.69
2019-04-10T21:20:34.498Z,101472.89
2019-04-10T21:25:28.616Z,101471.53
2019-04-10T21:30:24.503Z,101475.58
2019-04-10T21:35:20.852Z,101472.59
2019-04-10T21:40:15.057Z,101477.87
2019-04-10T21:45:09.574Z,101484.42
2019-04-10T21:50:04.663Z,101490.98
2019-04-10T21:55:00.457Z,101494.15
2019-04-10T21:59:54.715Z,101496.82
2019-04-10T22:04:49.798Z,101498.50
2019-04-10T22:10:01.546Z,101502.53
2019-04-10T22:14:56.092Z,101511.36
2019-04-10T22:19:50.737Z,101506.31
2019-04-10T22:24:44.935Z,101505.27
2019-04-10T22:29:39.029Z,101512.92
2019-04-10T22:34:34.179Z,101522.31
2019-04-10T22:39:29.692Z,101519.81
2019-04-10T22:44:35.387Z,101523.98
2019-04-10T22:49:20.266Z,101530.55
2019-04-10T22:54:14.596Z,101529.63
2019-04-10T22:59:08.740Z,101527.36
2019-04-10T23:04:03.793Z,101532.13
2019-04-10T23:08:58.084Z,101534.06
2019-04-10T23:13:52.222Z,101534.83
2019-04-10T23:18:46.198Z,101537.27
2019-04-10T23:23:41.104Z,101535.39
2019-04-10T23:28:35.785Z,101526.84
2019-04-10T23:33:30.225Z,101535.19
2019-04-10T23:38:24.273Z,101542.88
2019-04-10T23:43:20.821Z,101545.10
2019-04-10T23:48:14.912Z,101543.09
2019-04-10T23:53:08.917Z,101552.37
2019-04-10T23:58:02.893Z,101548.95
